Time;durP1;ratioP1;P1;durP2;ratioP2;P2;SDS_P1;SDS_P2;PMS_P1;PMS_P2;Temp;Humidity;BMP_temperature;BMP_pressure;BME280_temperature;BME280_humidity;BME280_pressure;Samples;Min_cycle;Max_cycle;Signal;HPM_P1;HPM_P2
2022/09/02 00:00:16;;;;;;;1.38;0.80;;;;;;;;;;4992223;28;20058;-79
2022/09/02 00:02:42;;;;;;;2.22;1.00;;;;;;;;;;4989919;28;20026;-77
2022/09/02 00:05:08;;;;;;;1.20;0.80;;;;;;;;;;4991925;28;20026;-74
2022/09/02 00:07:34;;;;;;;1.90;0.90;;;;;;;;;;5008377;28;20338;-73
2022/09/02 00:09:59;;;;;;;1.20;0.80;;;;;;;;;;4992400;28;20026;-78
2022/09/02 00:12:25;;;;;;;2.80;0.90;;;;;;;;;;4993371;28;20110;-73
2022/09/02 00:14:50;;;;;;;1.90;0.80;;;;;;;;;;4992200;28;20026;-78
2022/09/02 00:17:16;;;;;;;3.72;1.15;;;;;;;;;;4991755;28;20030;-78
2022/09/02 00:19:43;;;;;;;1.60;0.75;;;;;;;;;;5004375;28;20402;-78
2022/09/02 00:22:08;;;;;;;1.23;0.70;;;;;;;;;;4991960;28;20158;-73
2022/09/02 00:24:34;;;;;;;1.67;0.80;;;;;;;;;;4992981;28;20066;-76
2022/09/02 00:26:59;;;;;;;1.08;0.80;;;;;;;;;;4993327;28;20030;-78
2022/09/02 00:29:26;;;;;;;1.85;0.90;;;;;;;;;;4991907;28;20050;-80
2022/09/02 00:31:52;;;;;;;1.90;0.90;;;;;;;;;;4992965;28;20033;-75
2022/09/02 00:34:17;;;;;;;1.75;0.90;;;;;;;;;;4992099;28;20026;-75
2022/09/02 00:36:43;;;;;;;1.70;0.90;;;;;;;;;;4993112;28;20084;-76
2022/09/02 00:39:09;;;;;;;1.92;0.73;;;;;;;;;;5007996;28;20049;-74
2022/09/02 00:41:37;;;;;;;1.20;0.80;;;;;;;;;;5008260;28;20062;-78
2022/09/02 00:44:06;;;;;;;2.00;0.80;;;;;;;;;;4991861;28;20488;-74
2022/09/02 00:46:32;;;;;;;2.80;0.90;;;;;;;;;;4993008;28;20109;-80
2022/09/02 00:49:02;;;;;;;1.92;1.00;;;;;;;;;;5008367;28;20081;-75
2022/09/02 00:51:33;;;;;;;2.42;1.10;;;;;;;;;;4993160;28;20037;-78
2022/09/02 00:53:58;;;;;;;2.17;1.20;;;;;;;;;;4993275;28;20405;-73
2022/09/02 00:56:27;;;;;;;1.50;0.80;;;;;;;;;;4991844;28;20038;-78
2022/09/02 00:58:54;;;;;;;1.88;0.93;;;;;;;;;;4983581;28;20019;-75
2022/09/02 01:01:21;;;;;;;1.58;1.00;;;;;;;;;;4991095;28;20505;-74
2022/09/02 01:03:47;;;;;;;1.05;0.80;;;;;;;;;;4991370;28;20030;-80
2022/09/02 01:06:14;;;;;;;2.35;0.93;;;;;;;;;;4992838;28;20057;-74
2022/09/02 01:08:44;;;;;;;3.22;1.10;;;;;;;;;;4992694;28;20049;-76
2022/09/02 01:11:10;;;;;;;1.88;0.80;;;;;;;;;;4992246;28;20088;-80
2022/09/02 01:13:39;;;;;;;1.17;0.77;;;;;;;;;;4992723;28;20081;-79
2022/09/02 01:16:23;;;;;;;1.42;0.90;;;;;;;;;;4987954;28;20375;-75
2022/09/02 01:18:51;;;;;;;1.67;0.90;;;;;;;;;;4991646;28;20030;-75
2022/09/02 01:21:17;;;;;;;2.17;0.82;;;;;;;;;;4992752;28;20041;-76
2022/09/02 01:23:45;;;;;;;1.85;1.00;;;;;;;;;;4992573;28;20040;-78
2022/09/02 01:26:11;;;;;;;1.85;0.80;;;;;;;;;;4993098;28;20493;-79
2022/09/02 01:28:37;;;;;;;1.20;0.90;;;;;;;;;;4991627;28;20018;-75
2022/09/02 01:31:02;;;;;;;1.15;0.80;;;;;;;;;;4992515;28;20041;-76
2022/09/02 01:33:28;;;;;;;1.60;0.93;;;;;;;;;;4992741;28;20030;-80
2022/09/02 01:35:54;;;;;;;1.33;0.70;;;;;;;;;;4993833;28;20386;-74
2022/09/02 01:38:21;;;;;;;1.17;0.85;;;;;;;;;;4994644;28;20030;-73
2022/09/02 01:40:46;;;;;;;1.80;0.93;;;;;;;;;;4995108;28;20065;-76
2022/09/02 01:43:16;;;;;;;1.30;1.00;;;;;;;;;;4995954;28;20030;-75
2022/09/02 01:45:44;;;;;;;1.08;0.70;;;;;;;;;;5011245;28;20486;-78
2022/09/02 01:48:10;;;;;;;0.93;0.55;;;;;;;;;;5007098;28;20544;-77
2022/09/02 01:50:42;;;;;;;1.77;0.88;;;;;;;;;;4995861;28;20394;-73
2022/09/02 01:53:08;;;;;;;2.03;0.98;;;;;;;;;;4996093;28;20097;-79
2022/09/02 01:55:34;;;;;;;1.75;0.90;;;;;;;;;;5011003;28;20290;-74
2022/09/02 01:57:59;;;;;;;1.17;0.80;;;;;;;;;;4995626;28;20030;-76
2022/09/02 02:00:25;;;;;;;2.00;0.80;;;;;;;;;;4995695;28;20018;-78
2022/09/02 02:02:51;;;;;;;1.42;0.80;;;;;;;;;;4993768;28;20034;-78
2022/09/02 02:05:17;;;;;;;0.93;0.70;;;;;;;;;;4994528;28;20033;-80
2022/09/02 02:07:43;;;;;;;1.73;0.90;;;;;;;;;;4995431;28;20050;-76
2022/09/02 02:10:09;;;;;;;1.60;1.00;;;;;;;;;;4994449;28;20030;-77
2022/09/02 02:12:37;;;;;;;1.70;1.02;;;;;;;;;;4994434;28;20038;-77
2022/09/02 02:15:05;;;;;;;1.40;0.82;;;;;;;;;;4995633;28;20475;-76
2022/09/02 02:17:31;;;;;;;1.27;0.80;;;;;;;;;;4994857;28;20080;-74
2022/09/02 02:19:56;;;;;;;1.40;0.90;;;;;;;;;;4995495;28;20033;-79
2022/09/02 02:22:22;;;;;;;1.73;0.90;;;;;;;;;;4995395;28;20022;-73
2022/09/02 02:24:47;;;;;;;1.67;0.90;;;;;;;;;;4994536;28;20026;-78
2022/09/02 02:27:12;;;;;;;1.38;0.80;;;;;;;;;;4995292;28;20026;-74
2022/09/02 02:29:38;;;;;;;1.40;1.02;;;;;;;;;;4995427;28;20029;-74
2022/09/02 02:32:04;;;;;;;0.98;0.80;;;;;;;;;;4993615;28;20441;-78
2022/09/02 02:34:29;;;;;;;2.58;1.02;;;;;;;;;;4995023;28;20018;-80
2022/09/02 02:36:55;;;;;;;2.33;0.88;;;;;;;;;;4994995;28;20474;-79
2022/09/02 02:39:20;;;;;;;2.80;1.20;;;;;;;;;;4994916;28;20027;-75
2022/09/02 02:41:46;;;;;;;2.47;1.00;;;;;;;;;;4995027;28;20030;-78
2022/09/02 02:44:12;;;;;;;2.22;0.90;;;;;;;;;;4993885;28;20050;-78
2022/09/02 02:46:37;;;;;;;4.10;1.00;;;;;;;;;;4993172;28;20026;-78
2022/09/02 02:49:04;;;;;;;1.92;0.90;;;;;;;;;;4994392;28;20134;-76
2022/09/02 02:51:29;;;;;;;1.15;0.82;;;;;;;;;;4993647;28;20057;-79
2022/09/02 02:53:55;;;;;;;1.92;0.98;;;;;;;;;;4994855;28;20038;-76
2022/09/02 02:56:21;;;;;;;1.65;0.98;;;;;;;;;;4994759;28;20494;-79
2022/09/02 02:58:47;;;;;;;3.17;1.00;;;;;;;;;;4993425;28;20010;-75
2022/09/02 03:01:12;;;;;;;1.52;0.88;;;;;;;;;;4994612;28;20041;-79
2022/09/02 03:03:37;;;;;;;1.48;0.95;;;;;;;;;;4994331;28;20077;-80
2022/09/02 03:06:03;;;;;;;2.60;1.00;;;;;;;;;;4994268;28;20104;-80
2022/09/02 03:08:28;;;;;;;1.92;1.05;;;;;;;;;;4994710;28;20026;-73
2022/09/02 03:10:55;;;;;;;2.22;1.00;;;;;;;;;;4992599;28;20037;-80
2022/09/02 03:13:22;;;;;;;1.90;1.05;;;;;;;;;;4992967;28;20034;-80
2022/09/02 03:15:47;;;;;;;2.10;0.90;;;;;;;;;;4994633;28;20061;-76
2022/09/02 03:18:13;;;;;;;1.40;1.00;;;;;;;;;;5009137;28;20490;-74
2022/09/02 03:20:40;;;;;;;2.33;1.10;;;;;;;;;;4994305;28;20479;-80
2022/09/02 03:23:06;;;;;;;2.30;1.10;;;;;;;;;;4994247;28;20045;-75
2022/09/02 03:25:32;;;;;;;3.05;1.00;;;;;;;;;;5009452;28;20022;-79
2022/09/02 03:27:58;;;;;;;1.90;1.05;;;;;;;;;;4992603;28;20022;-75
2022/09/02 03:30:27;;;;;;;3.30;1.20;;;;;;;;;;4994144;28;20032;-73
2022/09/02 03:32:58;;;;;;;3.33;1.27;;;;;;;;;;4992707;28;20022;-75
2022/09/02 03:35:25;;;;;;;3.30;1.08;;;;;;;;;;4994384;28;20076;-75
2022/09/02 03:37:51;;;;;;;1.83;0.90;;;;;;;;;;4993975;28;20486;-75
2022/09/02 03:40:24;;;;;;;1.50;0.90;;;;;;;;;;4993606;28;20456;-74
2022/09/02 03:42:50;;;;;;;1.50;1.00;;;;;;;;;;4990917;28;20030;-79
2022/09/02 03:45:16;;;;;;;1.80;0.98;;;;;;;;;;4993889;28;20378;-79
2022/09/02 03:47:49;;;;;;;3.45;1.00;;;;;;;;;;4993817;28;20069;-78
2022/09/02 03:50:38;;;;;;;4.47;1.20;;;;;;;;;;4993877;28;20490;-75
2022/09/02 03:53:05;;;;;;;2.55;1.25;;;;;;;;;;4993678;28;20057;-76
2022/09/02 03:55:31;;;;;;;2.08;1.05;;;;;;;;;;4993955;28;20038;-74
2022/09/02 03:57:56;;;;;;;3.40;1.02;;;;;;;;;;4993547;28;20035;-75
2022/09/02 04:00:24;;;;;;;2.03;1.02;;;;;;;;;;4992066;28;20030;-76
2022/09/02 04:02:50;;;;;;;2.25;1.00;;;;;;;;;;4992225;28;20112;-79
2022/09/02 04:05:16;;;;;;;2.10;1.10;;;;;;;;;;4993280;28;20054;-73
2022/09/02 04:07:43;;;;;;;2.22;1.10;;;;;;;;;;4991989;28;20100;-76
2022/09/02 04:10:10;;;;;;;1.77;1.10;;;;;;;;;;5008609;28;20033;-76
2022/09/02 04:12:35;;;;;;;2.08;1.00;;;;;;;;;;4993338;28;20042;-79
2022/09/02 04:15:05;;;;;;;1.80;1.00;;;;;;;;;;4993575;28;20037;-75
2022/09/02 04:17:30;;;;;;;3.08;1.00;;;;;;;;;;4992145;28;20037;-77
2022/09/02 04:19:56;;;;;;;6.82;1.52;;;;;;;;;;4993376;28;20038;-73
2022/09/02 04:22:21;;;;;;;1.95;1.00;;;;;;;;;;4991860;28;20026;-78
2022/09/02 04:24:47;;;;;;;2.47;1.17;;;;;;;;;;4993428;28;20061;-79
2022/09/02 04:27:12;;;;;;;1.77;0.85;;;;;;;;;;5001590;28;20117;-79
2022/09/02 04:29:38;;;;;;;2.95;1.27;;;;;;;;;;4992985;28;20023;-76
2022/09/02 04:32:03;;;;;;;2.75;1.00;;;;;;;;;;4992731;28;20030;-76
2022/09/02 04:34:29;;;;;;;1.73;1.00;;;;;;;;;;4992951;28;20064;-79
2022/09/02 04:36:55;;;;;;;1.70;1.05;;;;;;;;;;4992886;28;20034;-77
2022/09/02 04:39:21;;;;;;;2.30;0.95;;;;;;;;;;4996816;28;20390;-78
2022/09/02 04:41:46;;;;;;;1.63;0.95;;;;;;;;;;4991801;28;20121;-76
2022/09/02 04:44:11;;;;;;;2.28;1.17;;;;;;;;;;4991920;28;20046;-75
2022/09/02 04:46:37;;;;;;;3.40;1.08;;;;;;;;;;4993214;28;20032;-75
2022/09/02 04:49:03;;;;;;;2.45;1.00;;;;;;;;;;4992947;28;20470;-75
2022/09/02 04:51:29;;;;;;;1.98;1.08;;;;;;;;;;4991665;28;20414;-76
2022/09/02 04:53:55;;;;;;;2.47;1.20;;;;;;;;;;4991971;28;20092;-78
2022/09/02 04:56:26;;;;;;;2.33;1.10;;;;;;;;;;4993138;28;20080;-76
2022/09/02 04:58:52;;;;;;;3.22;1.20;;;;;;;;;;4991892;28;20121;-79
2022/09/02 05:01:26;;;;;;;3.28;0.98;;;;;;;;;;4992616;28;20026;-79
2022/09/02 05:03:52;;;;;;;1.75;1.10;;;;;;;;;;4991445;28;20053;-78
2022/09/02 05:06:26;;;;;;;1.60;1.08;;;;;;;;;;4991516;28;20038;-78
2022/09/02 05:08:52;;;;;;;1.80;1.10;;;;;;;;;;4990214;28;20022;-78
2022/09/02 05:11:20;;;;;;;2.00;1.10;;;;;;;;;;4994237;28;20022;-75
2022/09/02 05:13:50;;;;;;;1.70;1.20;;;;;;;;;;5010047;28;20041;-75
2022/09/02 05:16:21;;;;;;;2.75;1.17;;;;;;;;;;4995280;28;20193;-76
2022/09/02 05:18:51;;;;;;;3.38;1.30;;;;;;;;;;4996900;28;20482;-78
2022/09/02 05:21:17;;;;;;;2.45;1.20;;;;;;;;;;4995139;28;20045;-76
2022/09/02 05:23:43;;;;;;;2.65;1.50;;;;;;;;;;4996009;28;20026;-77
2022/09/02 05:26:12;;;;;;;1.65;1.00;;;;;;;;;;4995104;28;20022;-80
2022/09/02 05:28:38;;;;;;;3.28;1.17;;;;;;;;;;4996541;28;20036;-74
2022/09/02 05:31:22;;;;;;;1.67;1.30;;;;;;;;;;4996383;28;20038;-75
2022/09/02 05:33:48;;;;;;;1.95;1.30;;;;;;;;;;4994904;28;20018;-78
2022/09/02 05:36:17;;;;;;;2.78;1.40;;;;;;;;;;4994830;28;20540;-73
2022/09/02 05:38:45;;;;;;;2.83;1.10;;;;;;;;;;4996231;28;20069;-78
2022/09/02 05:41:15;;;;;;;1.23;0.93;;;;;;;;;;4995037;28;20088;-76
2022/09/02 05:43:43;;;;;;;1.98;1.17;;;;;;;;;;4991932;28;20387;-80
2022/09/02 05:46:11;;;;;;;2.17;1.20;;;;;;;;;;4987206;28;20549;-74
2022/09/02 05:51:22;;;;;;;2.63;1.35;;;;;;;;;;4991542;28;20053;-75
2022/09/02 05:53:50;;;;;;;2.63;1.20;;;;;;;;;;4988483;28;20116;-75
2022/09/02 05:56:15;;;;;;;2.70;1.50;;;;;;;;;;4996020;28;20049;-78
2022/09/02 05:58:41;;;;;;;3.47;1.40;;;;;;;;;;5010945;28;20030;-77
2022/09/02 06:01:09;;;;;;;1.90;1.30;;;;;;;;;;4996022;28;20018;-74
2022/09/02 06:03:34;;;;;;;3.00;1.38;;;;;;;;;;4995256;28;20414;-75
2022/09/02 06:06:01;;;;;;;3.03;1.25;;;;;;;;;;4995389;28;20038;-78
2022/09/02 06:08:26;;;;;;;2.40;1.33;;;;;;;;;;4994532;28;20030;-75
2022/09/02 06:10:52;;;;;;;2.25;1.30;;;;;;;;;;4997162;28;20091;-78
2022/09/02 06:13:21;;;;;;;2.97;1.20;;;;;;;;;;4994104;28;20117;-74
2022/09/02 06:15:47;;;;;;;4.25;1.20;;;;;;;;;;4995727;28;20022;-80
2022/09/02 06:18:13;;;;;;;5.57;1.40;;;;;;;;;;4995297;28;20474;-80
2022/09/02 06:20:40;;;;;;;2.80;1.25;;;;;;;;;;5010670;28;20026;-74
2022/09/02 06:23:06;;;;;;;3.45;1.60;;;;;;;;;;4994896;28;20033;-74
2022/09/02 06:25:31;;;;;;;2.80;1.40;;;;;;;;;;4995427;28;20082;-75
2022/09/02 06:27:56;;;;;;;2.80;1.27;;;;;;;;;;4994419;28;20026;-79
2022/09/02 06:30:22;;;;;;;4.22;1.30;;;;;;;;;;4993934;28;20026;-79
2022/09/02 06:32:48;;;;;;;3.20;1.60;;;;;;;;;;4994834;28;20062;-79
2022/09/02 06:35:14;;;;;;;2.80;1.50;;;;;;;;;;4995050;28;20057;-80
2022/09/02 06:37:40;;;;;;;4.10;1.20;;;;;;;;;;4995218;28;20034;-80
2022/09/02 06:40:06;;;;;;;2.75;1.35;;;;;;;;;;4994460;28;20065;-78
2022/09/02 06:42:31;;;;;;;3.28;1.38;;;;;;;;;;4995021;28;20026;-75
2022/09/02 06:44:57;;;;;;;2.55;1.35;;;;;;;;;;4995193;28;20069;-80
2022/09/02 06:47:22;;;;;;;2.50;1.42;;;;;;;;;;5003890;28;20069;-80
2022/09/02 06:49:47;;;;;;;3.75;1.30;;;;;;;;;;4993389;28;20026;-79
2022/09/02 06:52:13;;;;;;;2.67;1.35;;;;;;;;;;4994696;28;20406;-74
2022/09/02 06:54:38;;;;;;;2.55;1.50;;;;;;;;;;4994962;28;20402;-75
2022/09/02 06:57:04;;;;;;;2.70;1.58;;;;;;;;;;4994236;28;20026;-78
2022/09/02 06:59:29;;;;;;;3.75;1.40;;;;;;;;;;4993510;28;20041;-75
2022/09/02 07:01:55;;;;;;;2.72;1.30;;;;;;;;;;4993197;28;20026;-78
2022/09/02 07:07:06;;;;;;;4.22;1.50;;;;;;;;;;4994300;28;20060;-75
2022/09/02 07:09:32;;;;;;;2.78;1.40;;;;;;;;;;4994173;28;20501;-78
2022/09/02 07:11:59;;;;;;;2.65;1.30;;;;;;;;;;4994572;28;20026;-76
2022/09/02 07:14:27;;;;;;;3.83;1.50;;;;;;;;;;4994503;28;20030;-75
2022/09/02 07:16:55;;;;;;;5.53;1.95;;;;;;;;;;4994521;28;20418;-79
2022/09/02 07:19:20;;;;;;;5.85;1.40;;;;;;;;;;5004212;28;20536;-76
2022/09/02 07:21:48;;;;;;;2.33;1.40;;;;;;;;;;4994114;28;20109;-80
2022/09/02 07:24:14;;;;;;;4.78;1.25;;;;;;;;;;4994318;28;20033;-74
2022/09/02 07:26:41;;;;;;;5.57;1.30;;;;;;;;;;4989180;28;20081;-80
2022/09/02 07:29:07;;;;;;;3.30;1.40;;;;;;;;;;4992609;28;20033;-75
2022/09/02 07:31:39;;;;;;;3.17;1.52;;;;;;;;;;4992927;28;20026;-76
2022/09/02 07:34:06;;;;;;;3.50;1.42;;;;;;;;;;4992655;28;20033;-79
2022/09/02 07:36:33;;;;;;;3.70;1.70;;;;;;;;;;4994072;28;20105;-76
2022/09/02 07:39:00;;;;;;;2.88;1.67;;;;;;;;;;4992699;28;20441;-79
2022/09/02 07:41:26;;;;;;;3.50;1.63;;;;;;;;;;4992449;28;20468;-75
2022/09/02 07:43:52;;;;;;;4.68;1.92;;;;;;;;;;4994125;28;20065;-80
2022/09/02 07:46:17;;;;;;;3.15;1.75;;;;;;;;;;4993893;28;20034;-79
2022/09/02 07:48:43;;;;;;;3.97;1.80;;;;;;;;;;4993665;28;20018;-80
2022/09/02 07:51:09;;;;;;;4.03;1.70;;;;;;;;;;4993701;28;20065;-75
2022/09/02 07:53:35;;;;;;;3.65;1.60;;;;;;;;;;4992438;28;20038;-80
2022/09/02 07:56:02;;;;;;;3.28;1.60;;;;;;;;;;4993806;28;20041;-80
2022/09/02 07:58:28;;;;;;;4.38;1.50;;;;;;;;;;4993430;28;20105;-78
2022/09/02 08:00:57;;;;;;;3.65;1.50;;;;;;;;;;4978128;28;20022;-73
2022/09/02 08:03:25;;;;;;;3.80;1.33;;;;;;;;;;4993438;28;20390;-74
2022/09/02 08:05:53;;;;;;;3.83;1.77;;;;;;;;;;4992315;28;20046;-76
2022/09/02 08:08:20;;;;;;;2.20;1.33;;;;;;;;;;4993617;28;20019;-74
2022/09/02 08:10:48;;;;;;;3.53;1.58;;;;;;;;;;4993563;28;20112;-79
2022/09/02 08:13:15;;;;;;;2.95;1.77;;;;;;;;;;4993422;28;20104;-75
2022/09/02 08:15:40;;;;;;;4.85;1.75;;;;;;;;;;4993719;28;20448;-74
2022/09/02 08:18:06;;;;;;;4.15;1.52;;;;;;;;;;4991867;28;20117;-80
2022/09/02 08:20:32;;;;;;;5.65;1.70;;;;;;;;;;4992110;28;20026;-79
2022/09/02 08:22:59;;;;;;;5.28;1.70;;;;;;;;;;4993074;28;20034;-75
2022/09/02 08:25:24;;;;;;;3.15;1.50;;;;;;;;;;4993592;28;20363;-78
2022/09/02 08:27:52;;;;;;;4.15;1.50;;;;;;;;;;4991827;28;20037;-75
2022/09/02 08:30:19;;;;;;;5.25;1.77;;;;;;;;;;4992362;28;20027;-79
2022/09/02 08:32:44;;;;;;;4.15;1.70;;;;;;;;;;4992059;28;20069;-79
2022/09/02 08:35:10;;;;;;;2.55;1.40;;;;;;;;;;4992063;28;20053;-79
2022/09/02 08:37:36;;;;;;;3.08;1.42;;;;;;;;;;4993070;28;20027;-80
2022/09/02 08:40:04;;;;;;;4.07;1.45;;;;;;;;;;4993139;28;20032;-76
2022/09/02 08:42:42;;;;;;;2.85;1.40;;;;;;;;;;4991737;28;20033;-73
2022/09/02 08:45:26;;;;;;;4.70;1.65;;;;;;;;;;4992075;28;20037;-78
2022/09/02 08:48:07;;;;;;;3.33;1.50;;;;;;;;;;4996777;28;20041;-74
2022/09/02 08:50:35;;;;;;;4.95;1.65;;;;;;;;;;4995974;28;20469;-79
2022/09/02 08:53:17;;;;;;;5.72;1.90;;;;;;;;;;4995546;28;20545;-80
2022/09/02 08:55:52;;;;;;;4.30;1.60;;;;;;;;;;4997314;28;20034;-76
2022/09/02 08:58:21;;;;;;;5.20;1.70;;;;;;;;;;4996660;28;20025;-74
2022/09/02 09:01:08;;;;;;;4.35;1.50;;;;;;;;;;4996971;28;20417;-74
2022/09/02 09:03:51;;;;;;;6.30;1.80;;;;;;;;;;5008742;28;20441;-75
2022/09/02 09:07:01;;;;;;;6.13;1.90;;;;;;;;;;4990721;28;20510;-76
2022/09/02 09:09:53;;;;;;;3.78;1.90;;;;;;;;;;4986442;28;20666;-77
2022/09/02 09:12:31;;;;;;;5.90;1.90;;;;;;;;;;4981496;28;20022;-75
2022/09/02 09:15:17;;;;;;;4.15;1.80;;;;;;;;;;4983702;28;20070;-83
2022/09/02 09:17:58;;;;;;;4.00;1.83;;;;;;;;;;4995265;28;20034;-77
2022/09/02 09:20:27;;;;;;;2.45;1.55;;;;;;;;;;4981480;28;20033;-78
2022/09/02 09:22:59;;;;;;;4.13;1.80;;;;;;;;;;4981474;28;20031;-82
2022/09/02 09:25:29;;;;;;;3.65;1.75;;;;;;;;;;4991832;28;20080;-79
2022/09/02 09:27:56;;;;;;;4.80;1.77;;;;;;;;;;4993377;28;20042;-83
2022/09/02 09:30:22;;;;;;;4.45;1.95;;;;;;;;;;4992768;28;20113;-83
2022/09/02 09:33:05;;;;;;;4.18;1.60;;;;;;;;;;5005121;28;20448;-76
2022/09/02 09:35:52;;;;;;;5.35;1.90;;;;;;;;;;4985573;28;20025;-76
2022/09/02 09:38:30;;;;;;;5.57;1.60;;;;;;;;;;4983802;28;20030;-78
2022/09/02 09:41:19;;;;;;;6.65;1.80;;;;;;;;;;4987528;28;20034;-74
2022/09/02 09:43:44;;;;;;;4.97;1.90;;;;;;;;;;4981971;28;20089;-74
2022/09/02 09:46:39;;;;;;;6.40;1.60;;;;;;;;;;5002195;28;20086;-75
2022/09/02 09:49:05;;;;;;;8.77;2.20;;;;;;;;;;4983663;28;20034;-74
2022/09/02 09:51:30;;;;;;;5.13;1.85;;;;;;;;;;4989329;28;20456;-75
2022/09/02 09:54:14;;;;;;;3.70;1.73;;;;;;;;;;4989612;28;20370;-76
2022/09/02 09:56:40;;;;;;;6.93;1.60;;;;;;;;;;5006467;28;20037;-80
2022/09/02 09:59:07;;;;;;;5.72;1.75;;;;;;;;;;4984144;28;20510;-80
2022/09/02 10:01:34;;;;;;;5.38;1.85;;;;;;;;;;4992690;28;20040;-77
2022/09/02 10:04:25;;;;;;;5.57;1.92;;;;;;;;;;4990042;28;20150;-74
2022/09/02 10:06:51;;;;;;;4.35;1.90;;;;;;;;;;4988945;28;20514;-77
2022/09/02 10:09:16;;;;;;;3.20;1.75;;;;;;;;;;4999121;28;20034;-81
2022/09/02 10:11:55;;;;;;;5.40;2.00;;;;;;;;;;4992591;28;20501;-76
2022/09/02 10:14:21;;;;;;;4.97;1.77;;;;;;;;;;4989339;28;20026;-74
2022/09/02 10:17:10;;;;;;;4.20;1.80;;;;;;;;;;4985695;28;20540;-84
2022/09/02 10:19:48;;;;;;;3.78;1.80;;;;;;;;;;4986749;28;20045;-77
2022/09/02 10:22:16;;;;;;;3.72;1.90;;;;;;;;;;5003572;28;20030;-76
2022/09/02 10:24:44;;;;;;;3.97;1.90;;;;;;;;;;4980300;28;20158;-78
2022/09/02 10:27:33;;;;;;;3.53;1.85;;;;;;;;;;4982527;28;20084;-82
2022/09/02 10:30:21;;;;;;;6.07;2.83;;;;;;;;;;4980878;28;20022;-80
2022/09/02 10:32:52;;;;;;;5.20;1.90;;;;;;;;;;5004326;28;20030;-75
2022/09/02 10:35:24;;;;;;;7.15;2.00;;;;;;;;;;4998856;28;20029;-87
2022/09/02 10:38:04;;;;;;;2.78;1.65;;;;;;;;;;5006602;28;20030;-87
2022/09/02 10:40:42;;;;;;;2.83;1.77;;;;;;;;;;4986613;28;20034;-85
2022/09/02 10:43:17;;;;;;;6.15;1.90;;;;;;;;;;4992605;28;20026;-79
2022/09/02 10:45:49;;;;;;;5.25;2.05;;;;;;;;;;4989758;28;20030;-75
2022/09/02 10:48:36;;;;;;;4.20;1.70;;;;;;;;;;5006235;28;20019;-77
2022/09/02 10:51:20;;;;;;;5.57;2.15;;;;;;;;;;4995952;28;20108;-78
2022/09/02 10:53:52;;;;;;;3.63;1.90;;;;;;;;;;5007531;28;20101;-86
2022/09/02 10:56:22;;;;;;;4.93;2.08;;;;;;;;;;4990189;28;20018;-74
2022/09/02 10:58:51;;;;;;;2.35;1.80;;;;;;;;;;5003117;28;20121;-77
2022/09/02 11:01:33;;;;;;;3.05;1.92;;;;;;;;;;4998088;28;20136;-78
2022/09/02 11:04:22;;;;;;;3.67;1.80;;;;;;;;;;4984925;28;20101;-75
2022/09/02 11:06:50;;;;;;;6.18;1.70;;;;;;;;;;4978353;28;20294;-75
2022/09/02 11:09:40;;;;;;;3.58;1.58;;;;;;;;;;4983212;28;20036;-76
2022/09/02 11:12:15;;;;;;;2.78;1.63;;;;;;;;;;4984631;28;20041;-85
2022/09/02 11:14:57;;;;;;;3.42;1.40;;;;;;;;;;5004017;28;20038;-85
2022/09/02 11:17:35;;;;;;;4.00;2.30;;;;;;;;;;4989199;28;20056;-79
2022/09/02 11:20:33;;;;;;;7.32;1.85;;;;;;;;;;4987582;28;20117;-85
2022/09/02 11:23:17;;;;;;;5.78;1.70;;;;;;;;;;4978877;28;20057;-80
2022/09/02 11:25:50;;;;;;;6.65;1.67;;;;;;;;;;4984676;28;20034;-79
2022/09/02 11:28:39;;;;;;;2.80;1.60;;;;;;;;;;5002265;28;20022;-79
2022/09/02 11:31:14;;;;;;;5.57;1.70;;;;;;;;;;4982291;28;20494;-79
2022/09/02 11:33:50;;;;;;;2.88;1.88;;;;;;;;;;4987569;28;20096;-78
2022/09/02 11:36:16;;;;;;;2.80;1.65;;;;;;;;;;4987856;28;20034;-75
2022/09/02 11:38:46;;;;;;;3.42;1.70;;;;;;;;;;4984626;28;20025;-79
2022/09/02 11:41:16;;;;;;;2.08;1.40;;;;;;;;;;4995403;28;20165;-84
2022/09/02 11:43:52;;;;;;;2.20;1.50;;;;;;;;;;4997897;28;20026;-79
2022/09/02 11:46:36;;;;;;;3.15;1.60;;;;;;;;;;4983250;28;20042;-78
2022/09/02 11:49:30;;;;;;;5.95;1.65;;;;;;;;;;4982272;28;20375;-79
2022/09/02 11:52:35;;;;;;;3.38;1.50;;;;;;;;;;4998328;28;20080;-86
2022/09/02 11:55:23;;;;;;;5.45;1.50;;;;;;;;;;4996123;28;20555;-75
2022/09/02 11:57:56;;;;;;;4.13;1.70;;;;;;;;;;4983168;28;20038;-75
2022/09/02 12:00:31;;;;;;;3.20;1.60;;;;;;;;;;4984266;28;20022;-77
2022/09/02 12:03:08;;;;;;;3.88;1.80;;;;;;;;;;4997210;28;20180;-88
2022/09/02 12:05:33;;;;;;;4.50;1.45;;;;;;;;;;4986808;28;20030;-76
2022/09/02 12:07:59;;;;;;;2.80;1.60;;;;;;;;;;4983865;28;20408;-79
2022/09/02 12:10:41;;;;;;;3.25;1.50;;;;;;;;;;4979211;28;20418;-76
2022/09/02 12:13:10;;;;;;;2.47;1.80;;;;;;;;;;4980930;28;20026;-78
2022/09/02 12:15:37;;;;;;;3.35;1.80;;;;;;;;;;4982601;28;20045;-76
2022/09/02 12:18:27;;;;;;;3.08;1.70;;;;;;;;;;4988543;28;20022;-77
2022/09/02 12:20:55;;;;;;;3.25;1.50;;;;;;;;;;4979214;28;20429;-77
2022/09/02 12:23:52;;;;;;;4.50;1.58;;;;;;;;;;4984204;28;20474;-79
2022/09/02 12:26:22;;;;;;;5.60;1.60;;;;;;;;;;4984637;28;20022;-78
2022/09/02 12:28:49;;;;;;;5.03;1.50;;;;;;;;;;4988696;28;20030;-78
2022/09/02 12:31:41;;;;;;;3.88;1.35;;;;;;;;;;4987427;28;20054;-78
2022/09/02 12:34:18;;;;;;;2.15;1.40;;;;;;;;;;5002648;28;20393;-76
2022/09/02 12:36:54;;;;;;;2.00;1.50;;;;;;;;;;4986777;28;20023;-86
2022/09/02 12:39:22;;;;;;;1.90;1.50;;;;;;;;;;4980296;28;20041;-80
2022/09/02 12:41:57;;;;;;;2.28;1.40;;;;;;;;;;4988166;28;20042;-76
2022/09/02 12:44:27;;;;;;;3.33;1.70;;;;;;;;;;4986461;28;20034;-81
2022/09/02 12:47:02;;;;;;;2.92;1.70;;;;;;;;;;4991076;28;20113;-76
2022/09/02 12:49:40;;;;;;;3.28;1.60;;;;;;;;;;4984482;28;20102;-80
2022/09/02 12:52:11;;;;;;;3.25;1.60;;;;;;;;;;4989096;28;20117;-78
2022/09/02 12:54:47;;;;;;;2.63;1.52;;;;;;;;;;4985702;28;20062;-80
2022/09/02 12:57:15;;;;;;;3.05;1.58;;;;;;;;;;4988620;28;20033;-81
2022/09/02 12:59:42;;;;;;;2.28;1.52;;;;;;;;;;4989662;28;20037;-87
2022/09/02 13:02:26;;;;;;;2.78;1.60;;;;;;;;;;5006539;28;20027;-75
2022/09/02 13:05:03;;;;;;;3.85;1.70;;;;;;;;;;4977149;28;20038;-75
2022/09/02 13:08:06;;;;;;;7.10;1.83;;;;;;;;;;4982444;28;20043;-78
2022/09/02 13:10:40;;;;;;;5.32;1.60;;;;;;;;;;5001126;28;20030;-78
2022/09/02 13:13:56;;;;;;;2.10;1.40;;;;;;;;;;5000878;28;20309;-76
2022/09/02 13:16:37;;;;;;;2.78;1.42;;;;;;;;;;4984585;28;20492;-76
2022/09/02 13:19:38;;;;;;;2.80;1.50;;;;;;;;;;4986912;28;20631;-79
2022/09/02 13:22:42;;;;;;;2.40;1.50;;;;;;;;;;4989676;28;20048;-78
2022/09/02 13:25:26;;;;;;;2.28;1.40;;;;;;;;;;4978268;28;20042;-75
2022/09/02 13:28:10;;;;;;;3.38;1.33;;;;;;;;;;4999421;28;20030;-83
2022/09/02 13:31:01;;;;;;;2.65;1.50;;;;;;;;;;5013203;28;20026;-78
2022/09/02 13:33:26;;;;;;;4.25;1.50;;;;;;;;;;4994291;28;20030;-78
2022/09/02 13:35:54;;;;;;;8.18;2.35;;;;;;;;;;4992439;28;20049;-88
2022/09/02 13:38:23;;;;;;;2.45;1.55;;;;;;;;;;4989125;28;20039;-87
2022/09/02 13:40:49;;;;;;;2.30;1.60;;;;;;;;;;4987086;28;20030;-80
2022/09/02 13:43:23;;;;;;;4.78;1.38;;;;;;;;;;4987494;28;20387;-85
2022/09/02 13:45:49;;;;;;;2.15;1.40;;;;;;;;;;4988261;28;20513;-78
2022/09/02 13:48:21;;;;;;;2.60;1.52;;;;;;;;;;5003828;28;20045;-79
2022/09/02 13:50:49;;;;;;;2.53;1.40;;;;;;;;;;4976940;28;20041;-80
2022/09/02 13:53:35;;;;;;;2.60;1.30;;;;;;;;;;4984903;28;20022;-77
2022/09/02 13:56:01;;;;;;;3.85;1.50;;;;;;;;;;4999017;28;20022;-80
2022/09/02 13:58:30;;;;;;;5.65;1.48;;;;;;;;;;4987533;28;20018;-76
2022/09/02 14:00:58;;;;;;;1.98;1.40;;;;;;;;;;5001181;28;20096;-79
2022/09/02 14:03:24;;;;;;;4.20;1.60;;;;;;;;;;4986906;28;20053;-87
2022/09/02 14:05:51;;;;;;;2.30;1.42;;;;;;;;;;4984816;28;20030;-85
2022/09/02 14:08:28;;;;;;;2.67;1.30;;;;;;;;;;4991019;28;20454;-82
2022/09/02 14:10:54;;;;;;;3.47;1.40;;;;;;;;;;4990282;28;20421;-85
2022/09/02 14:13:21;;;;;;;3.75;1.40;;;;;;;;;;5001990;28;20431;-86
2022/09/02 14:15:47;;;;;;;2.05;1.33;;;;;;;;;;4986901;28;20478;-78
2022/09/02 14:18:21;;;;;;;1.92;1.30;;;;;;;;;;4991074;28;21448;-78
2022/09/02 14:21:00;;;;;;;4.22;1.50;;;;;;;;;;4988623;28;20084;-79
2022/09/02 14:23:28;;;;;;;2.10;1.40;;;;;;;;;;4986585;28;20470;-78
2022/09/02 14:25:56;;;;;;;5.47;1.40;;;;;;;;;;4981646;28;20027;-80
2022/09/02 14:28:25;;;;;;;4.90;1.45;;;;;;;;;;4988307;28;20389;-76
2022/09/02 14:31:00;;;;;;;1.75;1.17;;;;;;;;;;4987113;28;20030;-77
2022/09/02 14:33:40;;;;;;;2.97;1.30;;;;;;;;;;4986645;28;20042;-76
2022/09/02 14:36:06;;;;;;;1.83;1.38;;;;;;;;;;4979987;28;20034;-76
2022/09/02 14:38:47;;;;;;;3.03;1.30;;;;;;;;;;5003526;28;20038;-83
2022/09/02 14:41:16;;;;;;;2.67;1.23;;;;;;;;;;4986805;28;20062;-79
2022/09/02 14:43:53;;;;;;;2.03;1.30;;;;;;;;;;5001869;28;20065;-79
2022/09/02 14:46:32;;;;;;;2.53;1.35;;;;;;;;;;4980589;28;20117;-80
2022/09/02 14:49:10;;;;;;;1.90;1.30;;;;;;;;;;4989943;28;20390;-78
2022/09/02 14:52:01;;;;;;;2.75;1.30;;;;;;;;;;5006277;28;20065;-78
2022/09/02 14:54:41;;;;;;;3.25;1.33;;;;;;;;;;4986045;28;20042;-88
2022/09/02 14:57:30;;;;;;;3.08;1.40;;;;;;;;;;4987099;28;20034;-86
2022/09/02 15:00:00;;;;;;;4.47;1.23;;;;;;;;;;4980803;28;20027;-78
2022/09/02 15:02:26;;;;;;;3.70;1.50;;;;;;;;;;4986110;28;20030;-80
2022/09/02 15:04:56;;;;;;;1.65;1.20;;;;;;;;;;4989020;28;20037;-76
2022/09/02 15:07:22;;;;;;;2.92;1.30;;;;;;;;;;4982633;28;20050;-86
2022/09/02 15:09:51;;;;;;;2.50;1.23;;;;;;;;;;4986776;28;20039;-81